sensor_id;sensor_type;location;lat;lon;timestamp;P1;durP1;ratioP1;P2;durP2;ratioP2
76094;SDS011;64821;13.710;100.604;2023-04-01T20:01:59;18.07;;;12.40;;
76094;SDS011;64821;13.710;100.604;2023-04-01T20:03:14;20.75;;;11.55;;
76094;SDS011;64821;13.710;100.604;2023-04-01T20:04:26;16.60;;;12.38;;
76094;SDS011;64821;13.710;100.604;2023-04-01T20:05:41;17.92;;;11.95;;
76094;SDS011;64821;13.710;100.604;2023-04-01T20:06:52;16.95;;;12.25;;
76094;SDS011;64821;13.710;100.604;2023-04-01T20:08:05;18.53;;;12.93;;
76094;SDS011;64821;13.710;100.604;2023-04-01T20:10:50;18.13;;;11.80;;
76094;SDS011;64821;13.710;100.604;2023-04-01T20:12:03;16.05;;;11.35;;
76094;SDS011;64821;13.710;100.604;2023-04-01T20:13:18;16.40;;;11.43;;
76094;SDS011;64821;13.710;100.604;2023-04-01T20:14:32;16.53;;;11.77;;
76094;SDS011;64821;13.710;100.604;2023-04-01T20:15:44;19.15;;;11.95;;
76094;SDS011;64821;13.710;100.604;2023-04-01T20:16:53;17.48;;;11.90;;
76094;SDS011;64821;13.710;100.604;2023-04-01T20:18:18;17.60;;;11.60;;
76094;SDS011;64821;13.710;100.604;2023-04-01T20:19:26;16.35;;;11.85;;
76094;SDS011;64821;13.710;100.604;2023-04-01T20:20:35;17.47;;;12.17;;
76094;SDS011;64821;13.710;100.604;2023-04-01T20:21:41;20.88;;;12.70;;
76094;SDS011;64821;13.710;100.604;2023-04-01T20:22:53;16.75;;;12.18;;
76094;SDS011;64821;13.710;100.604;2023-04-01T20:24:06;16.77;;;12.18;;
76094;SDS011;64821;13.710;100.604;2023-04-01T20:25:21;16.55;;;12.40;;
76094;SDS011;64821;13.710;100.604;2023-04-01T20:26:29;18.83;;;12.00;;
76094;SDS011;64821;13.710;100.604;2023-04-01T20:27:37;18.10;;;11.30;;
76094;SDS011;64821;13.710;100.604;2023-04-01T20:28:54;16.08;;;12.15;;
76094;SDS011;64821;13.710;100.604;2023-04-01T20:30:25;15.93;;;11.50;;
76094;SDS011;64821;13.710;100.604;2023-04-01T20:31:41;16.88;;;12.10;;
76094;SDS011;64821;13.710;100.604;2023-04-01T20:34:17;15.90;;;11.30;;
76094;SDS011;64821;13.710;100.604;2023-04-01T20:35:35;16.23;;;11.48;;
76094;SDS011;64821;13.710;100.604;2023-04-01T20:36:50;16.88;;;11.20;;
76094;SDS011;64821;13.710;100.604;2023-04-01T20:38:13;19.80;;;11.73;;
76094;SDS011;64821;13.710;100.604;2023-04-01T20:39:45;19.50;;;12.80;;
76094;SDS011;64821;13.710;100.604;2023-04-01T20:41:17;18.05;;;11.77;;
76094;SDS011;64821;13.710;100.604;2023-04-01T20:42:40;18.00;;;12.00;;
76094;SDS011;64821;13.710;100.604;2023-04-01T20:43:57;18.65;;;11.90;;
76094;SDS011;64821;13.710;100.604;2023-04-01T20:45:16;17.35;;;11.98;;
76094;SDS011;64821;13.710;100.604;2023-04-01T20:46:33;19.80;;;13.17;;
76094;SDS011;64821;13.710;100.604;2023-04-01T20:47:45;20.33;;;12.38;;
76094;SDS011;64821;13.710;100.604;2023-04-01T20:49:13;16.73;;;12.02;;
76094;SDS011;64821;13.710;100.604;2023-04-01T20:50:34;17.55;;;12.00;;
76094;SDS011;64821;13.710;100.604;2023-04-01T20:51:49;17.38;;;11.80;;
76094;SDS011;64821;13.710;100.604;2023-04-01T20:52:57;17.17;;;11.60;;
76094;SDS011;64821;13.710;100.604;2023-04-01T20:54:26;20.25;;;12.52;;
76094;SDS011;64821;13.710;100.604;2023-04-01T20:55:54;17.45;;;12.05;;
76094;SDS011;64821;13.710;100.604;2023-04-01T20:57:16;15.35;;;11.20;;
76094;SDS011;64821;13.710;100.604;2023-04-01T20:58:28;16.98;;;11.75;;
76094;SDS011;64821;13.710;100.604;2023-04-01T20:59:53;16.87;;;11.77;;
76094;SDS011;64821;13.710;100.604;2023-04-01T21:01:08;15.50;;;11.48;;
76094;SDS011;64821;13.710;100.604;2023-04-01T21:02:25;16.95;;;11.88;;
76094;SDS011;64821;13.710;100.604;2023-04-01T21:03:53;17.00;;;11.10;;
76094;SDS011;64821;13.710;100.604;2023-04-01T21:06:58;18.37;;;12.47;;
76094;SDS011;64821;13.710;100.604;2023-04-01T21:08:21;16.60;;;11.65;;
76094;SDS011;64821;13.710;100.604;2023-04-01T21:09:52;17.48;;;12.10;;
76094;SDS011;64821;13.710;100.604;2023-04-01T21:11:14;17.60;;;11.73;;
76094;SDS011;64821;13.710;100.604;2023-04-01T21:12:28;15.30;;;11.27;;
76094;SDS011;64821;13.710;100.604;2023-04-01T21:15:19;20.75;;;12.30;;
76094;SDS011;64821;13.710;100.604;2023-04-01T21:16:37;18.27;;;11.90;;
76094;SDS011;64821;13.710;100.604;2023-04-01T21:17:50;16.73;;;11.35;;
76094;SDS011;64821;13.710;100.604;2023-04-01T21:19:22;17.55;;;12.32;;
76094;SDS011;64821;13.710;100.604;2023-04-01T21:20:54;18.13;;;11.83;;
76094;SDS011;64821;13.710;100.604;2023-04-01T21:22:25;19.25;;;12.25;;
76094;SDS011;64821;13.710;100.604;2023-04-01T21:23:50;17.10;;;11.18;;
76094;SDS011;64821;13.710;100.604;2023-04-01T21:25:27;17.73;;;10.90;;
76094;SDS011;64821;13.710;100.604;2023-04-01T21:26:40;16.58;;;11.80;;
76094;SDS011;64821;13.710;100.604;2023-04-01T21:27:57;18.07;;;12.20;;
76094;SDS011;64821;13.710;100.604;2023-04-01T21:29:33;18.25;;;12.10;;
76094;SDS011;64821;13.710;100.604;2023-04-01T21:30:58;17.95;;;11.65;;
76094;SDS011;64821;13.710;100.604;2023-04-01T21:32:17;16.75;;;11.50;;
76094;SDS011;64821;13.710;100.604;2023-04-01T21:33:46;19.40;;;12.30;;
76094;SDS011;64821;13.710;100.604;2023-04-01T21:35:07;17.33;;;12.10;;
76094;SDS011;64821;13.710;100.604;2023-04-01T21:36:27;15.93;;;11.57;;
76094;SDS011;64821;13.710;100.604;2023-04-01T21:37:54;17.48;;;12.18;;
76094;SDS011;64821;13.710;100.604;2023-04-01T21:39:12;16.92;;;11.35;;
76094;SDS011;64821;13.710;100.604;2023-04-01T21:41:59;18.43;;;11.37;;
76094;SDS011;64821;13.710;100.604;2023-04-01T21:43:15;18.35;;;12.25;;
76094;SDS011;64821;13.710;100.604;2023-04-01T21:46:28;19.15;;;13.10;;
76094;SDS011;64821;13.710;100.604;2023-04-01T21:48:10;19.25;;;12.73;;
76094;SDS011;64821;13.710;100.604;2023-04-01T21:49:39;19.10;;;12.03;;
76094;SDS011;64821;13.710;100.604;2023-04-01T21:51:16;17.73;;;11.98;;
76094;SDS011;64821;13.710;100.604;2023-04-01T21:52:40;17.80;;;11.50;;
76094;SDS011;64821;13.710;100.604;2023-04-01T21:54:27;17.98;;;12.27;;
76094;SDS011;64821;13.710;100.604;2023-04-01T21:55:57;21.08;;;13.65;;
76094;SDS011;64821;13.710;100.604;2023-04-01T21:57:49;20.27;;;12.30;;
76094;SDS011;64821;13.710;100.604;2023-04-01T22:00:51;17.63;;;11.98;;
76094;SDS011;64821;13.710;100.604;2023-04-01T22:02:16;22.13;;;13.13;;
76094;SDS011;64821;13.710;100.604;2023-04-01T22:05:19;19.20;;;12.27;;
76094;SDS011;64821;13.710;100.604;2023-04-01T22:06:29;16.38;;;12.10;;
76094;SDS011;64821;13.710;100.604;2023-04-01T22:07:38;17.35;;;12.75;;
76094;SDS011;64821;13.710;100.604;2023-04-01T22:09:00;18.65;;;12.43;;
76094;SDS011;64821;13.710;100.604;2023-04-01T22:10:14;17.38;;;12.10;;
76094;SDS011;64821;13.710;100.604;2023-04-01T22:11:30;18.13;;;12.40;;
76094;SDS011;64821;13.710;100.604;2023-04-01T22:12:42;16.55;;;11.73;;
76094;SDS011;64821;13.710;100.604;2023-04-01T22:13:53;17.08;;;11.80;;
76094;SDS011;64821;13.710;100.604;2023-04-01T22:15:06;18.70;;;12.68;;
76094;SDS011;64821;13.710;100.604;2023-04-01T22:16:20;18.38;;;12.40;;
76094;SDS011;64821;13.710;100.604;2023-04-01T22:17:30;19.40;;;13.00;;
76094;SDS011;64821;13.710;100.604;2023-04-01T22:18:41;17.77;;;12.38;;
76094;SDS011;64821;13.710;100.604;2023-04-01T22:19:54;17.73;;;12.63;;
76094;SDS011;64821;13.710;100.604;2023-04-01T22:21:04;18.27;;;12.25;;
76094;SDS011;64821;13.710;100.604;2023-04-01T22:22:13;17.95;;;11.93;;
76094;SDS011;64821;13.710;100.604;2023-04-01T22:23:26;16.10;;;11.40;;
76094;SDS011;64821;13.710;100.604;2023-04-01T22:24:36;17.65;;;12.73;;
76094;SDS011;64821;13.710;100.604;2023-04-01T22:25:50;16.95;;;12.02;;
76094;SDS011;64821;13.710;100.604;2023-04-01T22:27:03;19.23;;;12.52;;
76094;SDS011;64821;13.710;100.604;2023-04-01T22:28:11;17.25;;;12.38;;
76094;SDS011;64821;13.710;100.604;2023-04-01T22:29:20;15.47;;;11.10;;
76094;SDS011;64821;13.710;100.604;2023-04-01T22:30:28;17.88;;;12.07;;
76094;SDS011;64821;13.710;100.604;2023-04-01T22:31:37;17.42;;;12.48;;
76094;SDS011;64821;13.710;100.604;2023-04-01T22:32:47;19.90;;;12.32;;
76094;SDS011;64821;13.710;100.604;2023-04-01T22:33:55;18.27;;;13.07;;
76094;SDS011;64821;13.710;100.604;2023-04-01T22:35:07;17.80;;;12.20;;
76094;SDS011;64821;13.710;100.604;2023-04-01T22:36:21;21.33;;;13.27;;
76094;SDS011;64821;13.710;100.604;2023-04-01T22:37:33;18.23;;;13.13;;
76094;SDS011;64821;13.710;100.604;2023-04-01T22:38:54;18.30;;;12.50;;
76094;SDS011;64821;13.710;100.604;2023-04-01T22:40:18;19.00;;;13.02;;
76094;SDS011;64821;13.710;100.604;2023-04-01T22:41:30;18.20;;;12.10;;
76094;SDS011;64821;13.710;100.604;2023-04-01T22:42:46;19.38;;;12.68;;
76094;SDS011;64821;13.710;100.604;2023-04-01T22:43:55;21.40;;;13.82;;
76094;SDS011;64821;13.710;100.604;2023-04-01T22:45:02;19.25;;;13.40;;
76094;SDS011;64821;13.710;100.604;2023-04-01T22:46:21;16.77;;;12.48;;
76094;SDS011;64821;13.710;100.604;2023-04-01T22:47:36;18.97;;;12.67;;
76094;SDS011;64821;13.710;100.604;2023-04-01T22:48:51;21.25;;;13.00;;
76094;SDS011;64821;13.710;100.604;2023-04-01T22:50:03;18.58;;;12.98;;
76094;SDS011;64821;13.710;100.604;2023-04-01T22:51:15;17.88;;;12.20;;
76094;SDS011;64821;13.710;100.604;2023-04-01T22:52:23;17.48;;;12.35;;
76094;SDS011;64821;13.710;100.604;2023-04-01T22:53:44;17.97;;;11.87;;
76094;SDS011;64821;13.710;100.604;2023-04-01T22:54:58;20.48;;;12.77;;
76094;SDS011;64821;13.710;100.604;2023-04-01T22:56:07;18.65;;;13.13;;
76094;SDS011;64821;13.710;100.604;2023-04-01T22:58:46;20.77;;;13.77;;
76094;SDS011;64821;13.710;100.604;2023-04-01T22:59:54;23.00;;;14.10;;
76094;SDS011;64821;13.710;100.604;2023-04-01T23:01:05;20.92;;;13.10;;
76094;SDS011;64821;13.710;100.604;2023-04-01T23:02:14;18.08;;;12.52;;
76094;SDS011;64821;13.710;100.604;2023-04-01T23:03:23;19.58;;;13.00;;
76094;SDS011;64821;13.710;100.604;2023-04-01T23:04:32;21.40;;;13.52;;
76094;SDS011;64821;13.710;100.604;2023-04-01T23:05:40;22.03;;;13.73;;
76094;SDS011;64821;13.710;100.604;2023-04-01T23:07:18;21.30;;;13.70;;
76094;SDS011;64821;13.710;100.604;2023-04-01T23:10:14;20.75;;;13.38;;
76094;SDS011;64821;13.710;100.604;2023-04-01T23:11:22;19.17;;;13.32;;
76094;SDS011;64821;13.710;100.604;2023-04-01T23:12:30;21.30;;;13.23;;
76094;SDS011;64821;13.710;100.604;2023-04-01T23:13:37;20.42;;;13.27;;
76094;SDS011;64821;13.710;100.604;2023-04-01T23:14:47;20.88;;;14.82;;
76094;SDS011;64821;13.710;100.604;2023-04-01T23:15:53;19.67;;;13.60;;
76094;SDS011;64821;13.710;100.604;2023-04-01T23:17:01;19.40;;;13.40;;
76094;SDS011;64821;13.710;100.604;2023-04-01T23:18:31;19.10;;;14.10;;
76094;SDS011;64821;13.710;100.604;2023-04-01T23:19:46;19.45;;;12.75;;
76094;SDS011;64821;13.710;100.604;2023-04-01T23:21:00;19.27;;;14.13;;
76094;SDS011;64821;13.710;100.604;2023-04-01T23:22:20;20.02;;;14.45;;
76094;SDS011;64821;13.710;100.604;2023-04-01T23:23:35;18.70;;;13.52;;
76094;SDS011;64821;13.710;100.604;2023-04-01T23:24:49;20.57;;;15.03;;
76094;SDS011;64821;13.710;100.604;2023-04-01T23:25:59;20.50;;;14.50;;
76094;SDS011;64821;13.710;100.604;2023-04-01T23:27:11;19.85;;;14.00;;
76094;SDS011;64821;13.710;100.604;2023-04-01T23:28:33;21.98;;;14.02;;
76094;SDS011;64821;13.710;100.604;2023-04-01T23:29:50;19.13;;;14.02;;
76094;SDS011;64821;13.710;100.604;2023-04-01T23:30:53;20.77;;;14.23;;
76094;SDS011;64821;13.710;100.604;2023-04-01T23:31:57;21.92;;;14.18;;
76094;SDS011;64821;13.710;100.604;2023-04-01T23:33:09;22.48;;;14.05;;
76094;SDS011;64821;13.710;100.604;2023-04-01T23:34:21;21.67;;;14.80;;
76094;SDS011;64821;13.710;100.604;2023-04-01T23:35:28;22.00;;;14.43;;
76094;SDS011;64821;13.710;100.604;2023-04-01T23:36:36;23.53;;;15.40;;
76094;SDS011;64821;13.710;100.604;2023-04-01T23:37:58;19.88;;;14.75;;
76094;SDS011;64821;13.710;100.604;2023-04-01T23:39:04;21.60;;;14.55;;
76094;SDS011;64821;13.710;100.604;2023-04-01T23:40:17;22.67;;;14.77;;
76094;SDS011;64821;13.710;100.604;2023-04-01T23:41:23;20.23;;;13.82;;
76094;SDS011;64821;13.710;100.604;2023-04-01T23:42:28;20.73;;;14.47;;
76094;SDS011;64821;13.710;100.604;2023-04-01T23:43:34;24.30;;;14.38;;
76094;SDS011;64821;13.710;100.604;2023-04-01T23:44:41;21.75;;;14.98;;
76094;SDS011;64821;13.710;100.604;2023-04-01T23:45:46;24.15;;;15.25;;
76094;SDS011;64821;13.710;100.604;2023-04-01T23:46:50;23.67;;;15.07;;
76094;SDS011;64821;13.710;100.604;2023-04-01T23:47:55;20.53;;;13.83;;
76094;SDS011;64821;13.710;100.604;2023-04-01T23:48:59;19.95;;;13.88;;
76094;SDS011;64821;13.710;100.604;2023-04-01T23:50:06;21.73;;;15.38;;
76094;SDS011;64821;13.710;100.604;2023-04-01T23:51:14;23.15;;;14.45;;
76094;SDS011;64821;13.710;100.604;2023-04-01T23:52:24;20.05;;;14.13;;
76094;SDS011;64821;13.710;100.604;2023-04-01T23:53:30;20.70;;;14.50;;
76094;SDS011;64821;13.710;100.604;2023-04-01T23:54:39;20.17;;;14.10;;
76094;SDS011;64821;13.710;100.604;2023-04-01T23:55:46;19.83;;;14.38;;
76094;SDS011;64821;13.710;100.604;2023-04-01T23:56:53;20.90;;;14.88;;
76094;SDS011;64821;13.710;100.604;2023-04-01T23:58:05;23.38;;;15.32;;
76094;SDS011;64821;13.710;100.604;2023-04-01T23:59:17;21.77;;;15.40;;
